Share

Gaborone, Botswana

Sir Seretse Khama International (FBSK) Elev 3297 ft | 24.56 °S, 25.92 °E | Change Station

Current weather conditions updated 24 minutes ago

Overcast
Overcast
61 °F
Feels Like 61 °F
N
10
Wind Variable Wind from ENE
Sunrise 6:31 AM
Sunset 5:59 PM
Moon Waning Gibbous

Today is forecast to be Cooler than yesterday.

Pressure 30.27 in
Visibility 6.2 miles
Clouds Overcast 1000 ft
Dew Point 55 °F
Humidity 82%
Rainfall 0.00 in
Snow Depth Not available.
UV 1 out of 16
Pollen Not available.
Air Quality Not available.
Flu Activity Not available.
METAR FBSK 170700Z 06009KT 9999 OVC010 16/13 Q1025 NOSIG

More Conditions Fewer Conditions

Pressure 30.27 in
Visibility 6.2 miles
Clouds Overcast 1000 ft
Dew Point 55 °F
Humidity 82%
Rainfall 0.00 in
Snow Depth Not available.
UV 1 out of 16
Pollen Not available.
Air Quality Not available.
Flu Activity Not available.
METAR FBSK 170700Z 06009KT 9999 OVC010 16/13 Q1025 NOSIG

More Conditions Fewer Conditions

10-Day Forecast

Almanac

Astronomy

Apr. 17, 2014 Rise Set
Actual Time 6:31 AM CAT 5:59 PM CAT
Civil Twilight 6:08 AM CAT 6:22 PM CAT
Nautical Twilight 5:41 AM CAT 6:49 PM CAT
Astronomical Twilight 5:15 AM CAT 7:16 PM CAT
Moon 7:45 PM CAT 8:22 AM CAT
Length of Visible Light 12h 14m
Length of Day
11h 28m
Tomorrow will be 1m 19s shorter.
Waning Gibbous, 95% of the Moon is Illuminated
Today
Waning Gibbous
Apr 22
Last Quarter
Apr 29
New
May 6
First Quarter
May 14
Full

Yesterday's Extremes

Country Highs Country Lows

Community

  • Sunset over the Bay
    Sunset over the Bay
  • symphony in blue....
    symphony in blue....
  • Dawn Surprise
    Dawn Surprise
  • Yucca delight
    Yucca delight
  • Sunset inside of the Ocean
    Sunset inside of the Ocean

WunderPhotos

Upload Photos

1,701,875 photos uploaded!

WunderBlogs® & News

Nearby

Snow Depth

Not available.

Coastal Water Temperatures

Place Temperature
No Stations Reporting

Earthquake Activity

City Distance Mag. Time & Date
No recent earthquake activity has been reported nearby.
Minimum magnitude displayed is 2.5.

Nearby Weather Stations

There are no personal weather stations in this area.

What do you think?

We're not finished. Please let us know what you like, what you don't like, and what you are still missing.